Weather History for Sterling Muni, Sterling, CO, CO

Change the Weather History Date:

Tuesday, December 24, 2013

  Actual Average Record
Temperature  
Mean Temperature 30 °F -  
Max Temperature 46 °F 36 °F 46 °F (2013)
Min Temperature 14 °F 11 °F 14 °F (2013)
Degree Days  
Heating Degree Days 35    
Moisture  
Dew Point 22 °F    
Average Humidity 82    
Maximum Humidity 100    
Minimum Humidity 53    
Precipitation  
Precipitation 0.00 in - - ()
Sea Level Pressure  
Sea Level Pressure 30.10 in    
Wind  
Wind Speed 10 mph (WSW)    
Max Wind Speed 30 mph    
Max Gust Speed 37 mph    
Visibility 10 miles    
Events Rain    
Averages and records for this station are not official NWS values.
T = Trace of Precipitation, MM = Missing Value Source: NWS Daily Summary

Daily Weather History Graph

Daily Weather History Graph

Search for Another Location

Airport:

Trip Planner

Search our weather history database for the weather conditions in past years. The results will help you decide how hot, cold, wet, or windy it might be!

Date:

Astronomy

Dec. 24, 2013 Rise Set
Actual Time 7:14 AM MST 4:30 PM MST
Civil Twilight 6:43 AM MST 5:01 PM MST
Nautical Twilight 6:09 AM MST 5:36 PM MST
Astronomical Twilight 5:36 AM MST 6:09 PM MST
Moon 11:43 PM MST (12/24) 11:08 AM MST (12/24)
Length of Visible Light 10h 18m
Length of Day
9h 16m
Waning Gibbous, 58% of the Moon is Illuminated
Dec 24
Waning Gibbous
Dec 25
Last Quarter
Jan 1
New
Jan 7
First Quarter
Jan 15
Full

Hourly Weather History & Observations

Time (MST) Temp. Windchill Dew Point Humidity Pressure Visibility Wind Dir Wind Speed Gust Speed Precip Events Conditions
12:10 AM 19.4 °F 8.6 °F 15.8 °F 86% 30.06 in 10.0 mi SSW 9.2 mph - N/A   Clear
12:30 AM 17.6 °F 8.2 °F 14.0 °F 86% 30.06 in 10.0 mi SW 6.9 mph - N/A   Clear
12:50 AM 17.6 °F 7.3 °F 15.8 °F 93% 30.06 in 10.0 mi SSW 8.1 mph - N/A   Clear
1:10 AM 17.6 °F 8.2 °F 15.8 °F 93% 30.04 in 10.0 mi SW 6.9 mph - N/A   Clear
1:30 AM 17.6 °F 9.3 °F 14.0 °F 86% 30.04 in 10.0 mi SSW 5.8 mph - N/A   Clear
1:50 AM 17.6 °F 8.2 °F 14.0 °F 86% 30.04 in 10.0 mi SSW 6.9 mph - N/A   Clear
2:10 AM 17.6 °F 12.3 °F 14.0 °F 86% 30.04 in 10.0 mi SW 3.5 mph - N/A   Scattered Clouds
2:30 AM 17.6 °F 10.7 °F 14.0 °F 86% 30.03 in 10.0 mi South 4.6 mph - N/A   Scattered Clouds
2:50 AM 19.4 °F 12.8 °F 15.8 °F 86% 30.03 in 10.0 mi SW 4.6 mph - N/A   Scattered Clouds
3:10 AM 19.4 °F 12.8 °F 15.8 °F 86% 30.02 in 10.0 mi SSW 4.6 mph - N/A   Clear
3:30 AM 19.4 °F 10.4 °F 17.6 °F 93% 30.01 in 10.0 mi South 6.9 mph - N/A   Clear
3:50 AM 21.2 °F 16.4 °F 17.6 °F 86% 30.01 in 10.0 mi South 3.5 mph - N/A   Scattered Clouds
4:10 AM 21.2 °F 16.4 °F 19.4 °F 93% 30.01 in 10.0 mi SSW 3.5 mph - N/A   Mostly Cloudy
4:30 AM 21.2 °F 12.6 °F 19.4 °F 93% 30.00 in 10.0 mi SSW 6.9 mph - N/A   Scattered Clouds
4:50 AM 21.2 °F 13.6 °F 19.4 °F 93% 29.98 in 10.0 mi South 5.8 mph - N/A   Clear
5:10 AM 19.4 °F 8.6 °F 17.6 °F 93% 29.99 in 10.0 mi SW 9.2 mph - N/A   Clear
5:30 AM 21.2 °F 12.6 °F 17.6 °F 86% 29.98 in 10.0 mi SSW 6.9 mph - N/A   Clear
5:50 AM 19.4 °F 14.3 °F 17.6 °F 93% 29.99 in 10.0 mi South 3.5 mph - N/A   Clear
6:10 AM 19.4 °F 14.3 °F 17.6 °F 93% 30.00 in 10.0 mi South 3.5 mph - N/A   Clear
6:30 AM 19.4 °F 9.5 °F 15.8 °F 86% 30.00 in 10.0 mi SSW 8.1 mph - N/A   Clear
6:50 AM 19.4 °F 7.9 °F 17.6 °F 93% 29.99 in 10.0 mi SW 10.4 mph - N/A   Clear
7:10 AM 19.4 °F 9.5 °F 15.8 °F 86% 30.00 in 10.0 mi South 8.1 mph - N/A   Clear
7:30 AM 19.4 °F 12.8 °F 17.6 °F 93% 30.00 in 7.0 mi SSW 4.6 mph - N/A   Scattered Clouds
7:50 AM 19.4 °F 7.9 °F 17.6 °F 93% 29.98 in 7.0 mi SSW 10.4 mph - N/A   Scattered Clouds
8:10 AM 21.2 °F 8.3 °F 17.6 °F 86% 29.97 in 10.0 mi SSW 13.8 mph - N/A   Clear
8:30 AM 23.0 °F 18.4 °F 19.4 °F 86% 29.97 in 10.0 mi SE 3.5 mph - N/A   Clear
8:50 AM 26.6 °F 20.0 °F 21.2 °F 80% 29.95 in 10.0 mi SSW 5.8 mph - N/A   Scattered Clouds
9:10 AM 32.0 °F - 24.8 °F 75% 29.96 in 10.0 mi Calm Calm - N/A   Clear
9:30 AM 32.0 °F - 26.6 °F 80% 29.98 in 10.0 mi Calm Calm - N/A   Clear
9:50 AM 32.0 °F - 26.6 °F 80% 29.99 in 10.0 mi Calm Calm - N/A   Clear
10:10 AM 32.0 °F 24.8 °F 26.6 °F 80% 29.99 in 10.0 mi South 8.1 mph - N/A   Clear
10:30 AM 33.8 °F - 26.6 °F 75% 30.00 in 10.0 mi Calm Calm - N/A   Scattered Clouds
10:50 AM 46.4 °F 37.5 °F 30.2 °F 53% 30.00 in 10.0 mi NNW 27.6 mph 35.7 mph N/A   Overcast
11:10 AM 41.0 °F 31.9 °F 32.0 °F 70% 30.03 in 10.0 mi North 19.6 mph 31.1 mph N/A   Light Drizzle
11:30 AM 39.2 °F 28.3 °F 32.0 °F 75% 30.03 in 10.0 mi NNW 25.3 mph 33.4 mph N/A   Overcast
11:50 AM 37.4 °F 25.6 °F 32.0 °F 81% 30.04 in 10.0 mi North 26.5 mph 33.4 mph N/A   Mostly Cloudy
12:10 PM 39.2 °F 27.4 °F 32.0 °F 75% 30.06 in 10.0 mi North 29.9 mph 33.4 mph N/A   Overcast
12:30 PM 37.4 °F 27.8 °F 32.0 °F 81% 30.06 in 10.0 mi North 17.3 mph 27.6 mph N/A Rain Light Rain
12:50 PM 41.0 °F 30.7 °F 32.0 °F 70% 30.06 in 10.0 mi North 25.3 mph - N/A   Scattered Clouds
1:10 PM 42.8 °F 33.1 °F 30.2 °F 61% 30.07 in 10.0 mi North 25.3 mph 32.2 mph N/A   Clear
1:30 PM 42.8 °F 33.1 °F 28.4 °F 57% 30.07 in 10.0 mi NNW 25.3 mph 32.2 mph N/A   Scattered Clouds
1:50 PM 42.8 °F 32.3 °F 28.4 °F 57% 30.08 in 10.0 mi NNW 29.9 mph 34.5 mph N/A   Scattered Clouds
2:10 PM 39.2 °F 27.8 °F 28.4 °F 65% 30.10 in 10.0 mi NNW 27.6 mph 36.8 mph N/A   Scattered Clouds
2:30 PM 37.4 °F 26.6 °F 28.4 °F 70% 30.11 in 10.0 mi North 21.9 mph 32.2 mph N/A   Mostly Cloudy
2:50 PM 37.4 °F 27.2 °F 28.4 °F 70% 30.12 in 10.0 mi North 19.6 mph 28.8 mph N/A   Scattered Clouds
3:10 PM 37.4 °F 27.2 °F 28.4 °F 70% 30.13 in 10.0 mi North 19.6 mph 34.5 mph N/A   Clear
3:30 PM 37.4 °F 26.1 °F 28.4 °F 70% 30.14 in 10.0 mi NNW 24.2 mph 27.6 mph N/A   Scattered Clouds
3:50 PM 35.6 °F 24.2 °F 26.6 °F 70% 30.16 in 10.0 mi NNW 21.9 mph 32.2 mph N/A   Clear
4:10 PM 35.6 °F 25.2 °F 26.6 °F 70% 30.17 in 10.0 mi NNW 18.4 mph 25.3 mph N/A   Clear
4:30 PM 35.6 °F 24.5 °F 26.6 °F 70% 30.19 in 10.0 mi North 20.7 mph 28.8 mph N/A   Scattered Clouds
4:50 PM 35.6 °F 24.2 °F 26.6 °F 70% 30.20 in 10.0 mi NNW 21.9 mph 27.6 mph N/A   Overcast
5:10 PM 35.6 °F 23.7 °F 26.6 °F 70% 30.21 in 10.0 mi NNW 24.2 mph 28.8 mph N/A   Overcast
5:30 PM 35.6 °F 24.5 °F 26.6 °F 70% 30.22 in 10.0 mi NNW 20.7 mph 28.8 mph N/A   Overcast
5:50 PM 33.8 °F 22.8 °F 26.6 °F 75% 30.23 in 10.0 mi NNW 18.4 mph 27.6 mph N/A   Overcast
6:10 PM 32.0 °F 20.1 °F 26.6 °F 80% 30.24 in 10.0 mi NNW 19.6 mph - N/A   Scattered Clouds
6:30 PM 32.0 °F 21.6 °F 26.6 °F 80% 30.24 in 10.0 mi NNW 15.0 mph 19.6 mph N/A   Clear
6:50 PM 30.2 °F 21.3 °F 24.8 °F 80% 30.26 in 10.0 mi NNW 10.4 mph - N/A   Clear
7:10 PM 28.4 °F 19.7 °F 23.0 °F 80% 30.26 in 10.0 mi NW 9.2 mph - N/A   Clear
7:30 PM 28.4 °F 20.4 °F 23.0 °F 80% 30.26 in 10.0 mi NW 8.1 mph - N/A   Clear
7:50 PM 26.6 °F 21.2 °F 23.0 °F 86% 30.26 in 10.0 mi NW 4.6 mph - N/A   Clear
8:10 PM 23.0 °F 18.4 °F 21.2 °F 93% 30.27 in 10.0 mi SE 3.5 mph - N/A   Clear
8:30 PM 26.6 °F 22.6 °F 21.2 °F 80% 30.27 in 10.0 mi WNW 3.5 mph - N/A   Clear
8:50 PM 23.0 °F 15.8 °F 19.4 °F 86% 30.27 in 10.0 mi South 5.8 mph - N/A   Clear
9:10 PM 21.2 °F 14.9 °F 19.4 °F 93% 30.27 in 10.0 mi SW 4.6 mph - N/A   Clear
9:30 PM 19.4 °F 10.4 °F 17.6 °F 93% 30.26 in 10.0 mi SW 6.9 mph - N/A   Clear
9:50 PM 17.6 °F 10.7 °F 14.0 °F 86% 30.27 in 10.0 mi WSW 4.6 mph - N/A   Clear
10:10 PM 15.8 °F 8.6 °F 14.0 °F 93% 30.27 in 10.0 mi SW 4.6 mph - N/A   Clear
10:30 PM 14.0 °F 3.9 °F 14.0 °F 100% 30.27 in 10.0 mi SW 6.9 mph - N/A   Clear
10:50 PM 15.8 °F 10.2 °F 14.0 °F 93% 30.27 in 10.0 mi WSW 3.5 mph - N/A   Clear
11:10 PM 17.6 °F 12.3 °F 15.8 °F 93% 30.27 in 10.0 mi West 3.5 mph - N/A   Clear
11:30 PM 14.0 °F 5.1 °F 12.2 °F 93% 30.27 in 10.0 mi West 5.8 mph - N/A   Clear
11:50 PM 14.0 °F 3.9 °F 12.2 °F 93% 30.28 in 10.0 mi SW 6.9 mph - N/A   Clear